createdAt,value
2019-03-27T00:00:58.035Z,55.00
2019-03-27T00:03:01.329Z,55.10
2019-03-27T00:05:05.377Z,55.10
2019-03-27T00:07:08.654Z,55.20
2019-03-27T00:09:11.951Z,55.20
2019-03-27T00:11:16.284Z,55.10
2019-03-27T00:13:19.885Z,55.20
2019-03-27T00:15:23.258Z,55.10
2019-03-27T00:17:26.580Z,55.20
2019-03-27T00:19:29.951Z,55.30
2019-03-27T00:21:33.239Z,55.20
2019-03-27T00:23:36.627Z,55.20
2019-03-27T00:25:39.911Z,55.20
2019-03-27T00:27:43.309Z,55.30
2019-03-27T00:29:46.611Z,55.30
2019-03-27T00:31:49.997Z,55.30
2019-03-27T00:33:53.385Z,55.30
2019-03-27T00:35:56.743Z,55.40
2019-03-27T00:38:00.189Z,55.40
2019-03-27T00:40:04.757Z,55.40
2019-03-27T00:42:08.053Z,56.00
2019-03-27T00:44:11.427Z,55.40
2019-03-27T00:46:14.830Z,55.50
2019-03-27T00:48:18.199Z,55.40
2019-03-27T00:50:21.505Z,55.50
2019-03-27T00:52:24.826Z,55.50
2019-03-27T00:54:31.169Z,55.60
2019-03-27T00:56:41.078Z,55.50
2019-03-27T00:58:49.648Z,55.40
2019-03-27T01:01:02.091Z,55.50
2019-03-27T01:03:12.677Z,55.60
2019-03-27T01:05:23.125Z,55.60
2019-03-27T01:07:32.963Z,55.70
2019-03-27T01:09:36.933Z,55.70
2019-03-27T01:11:40.343Z,55.70
2019-03-27T01:13:46.707Z,55.70
2019-03-27T01:15:50.062Z,55.70
2019-03-27T01:17:53.400Z,55.70
2019-03-27T01:19:56.690Z,55.80
2019-03-27T01:21:59.974Z,56.40
2019-03-27T01:24:03.367Z,55.70
2019-03-27T01:26:06.728Z,55.70
2019-03-27T01:28:10.125Z,55.70
2019-03-27T01:30:13.513Z,55.70
2019-03-27T01:32:16.840Z,55.70
2019-03-27T01:34:20.232Z,55.80
2019-03-27T01:36:24.450Z,55.80
2019-03-27T01:38:29.004Z,55.80
2019-03-27T01:40:32.555Z,56.40
2019-03-27T01:42:35.931Z,56.00
2019-03-27T01:44:39.237Z,55.90
2019-03-27T01:46:45.288Z,56.00
2019-03-27T01:48:48.621Z,56.00
2019-03-27T01:50:51.923Z,56.00
2019-03-27T01:52:55.299Z,56.00
2019-03-27T01:54:58.704Z,56.10
2019-03-27T01:57:02.087Z,56.00
2019-03-27T01:59:05.774Z,56.10
2019-03-27T02:01:09.322Z,56.10
2019-03-27T02:03:12.607Z,56.90
2019-03-27T02:05:15.966Z,56.10
2019-03-27T02:07:19.420Z,56.20
2019-03-27T02:09:22.756Z,56.20
2019-03-27T02:11:28.767Z,56.20
2019-03-27T02:13:32.113Z,56.20
2019-03-27T02:15:35.542Z,56.20
2019-03-27T02:17:38.924Z,56.30
2019-03-27T02:19:42.282Z,56.30
2019-03-27T02:21:45.678Z,56.20
2019-03-27T02:23:48.979Z,56.30
2019-03-27T02:25:52.340Z,56.20
2019-03-27T02:27:55.754Z,56.30
2019-03-27T02:29:59.117Z,56.20
2019-03-27T02:32:02.489Z,56.20
2019-03-27T02:34:05.883Z,56.20
2019-03-27T02:36:09.259Z,56.20
2019-03-27T02:38:12.611Z,56.20
2019-03-27T02:40:16.017Z,56.30
2019-03-27T02:42:19.389Z,56.30
2019-03-27T02:44:22.753Z,56.30
2019-03-27T02:46:26.160Z,56.20
2019-03-27T02:48:29.511Z,56.20
2019-03-27T02:50:32.890Z,56.20
2019-03-27T02:52:36.313Z,56.20
2019-03-27T02:54:39.642Z,56.20
2019-03-27T02:56:43.006Z,56.30
2019-03-27T02:58:46.382Z,56.20
2019-03-27T03:00:49.684Z,56.30
2019-03-27T03:02:56.626Z,56.30
2019-03-27T03:04:59.973Z,56.30
2019-03-27T03:07:22.681Z,56.30
2019-03-27T03:09:26.055Z,56.40
2019-03-27T03:11:29.932Z,56.40
2019-03-27T03:13:33.286Z,56.40
2019-03-27T03:15:36.590Z,56.50
2019-03-27T03:17:39.978Z,56.60
2019-03-27T03:19:43.279Z,56.50
2019-03-27T03:21:49.467Z,56.60
2019-03-27T03:23:52.852Z,56.60
2019-03-27T03:25:56.238Z,56.50
2019-03-27T03:27:59.598Z,56.50
2019-03-27T03:30:03.062Z,56.50
2019-03-27T03:32:06.375Z,56.60
2019-03-27T03:34:09.677Z,56.60
2019-03-27T03:36:13.065Z,56.70
2019-03-27T03:38:16.440Z,56.60
2019-03-27T03:40:19.779Z,56.60
2019-03-27T03:42:23.172Z,57.30
2019-03-27T03:44:26.737Z,56.50
2019-03-27T03:46:30.096Z,56.50
2019-03-27T03:48:33.521Z,56.60
2019-03-27T03:50:40.823Z,56.60
2019-03-27T03:52:46.915Z,56.70
2019-03-27T03:54:50.234Z,56.70
2019-03-27T03:56:53.605Z,56.60
2019-03-27T03:58:56.974Z,56.60
2019-03-27T04:01:01.223Z,56.70
2019-03-27T04:03:07.934Z,56.70
2019-03-27T04:05:16.346Z,56.70
2019-03-27T04:07:19.743Z,56.80
2019-03-27T04:09:23.099Z,56.80
2019-03-27T04:11:26.470Z,56.80
2019-03-27T04:13:29.874Z,56.90
2019-03-27T04:15:33.260Z,56.90
2019-03-27T04:17:36.615Z,56.90
2019-03-27T04:19:40.025Z,56.90
2019-03-27T04:21:43.411Z,56.90
2019-03-27T04:23:49.834Z,56.90
2019-03-27T04:26:08.955Z,56.90
2019-03-27T04:28:01.120Z,56.90
2019-03-27T04:30:06.233Z,57.00
2019-03-27T04:32:09.642Z,56.90
2019-03-27T04:34:13.013Z,56.90
2019-03-27T04:36:16.379Z,56.80
2019-03-27T04:38:19.755Z,56.80
2019-03-27T04:40:23.189Z,57.00
2019-03-27T04:42:26.554Z,56.90
2019-03-27T04:44:29.914Z,56.80
2019-03-27T04:46:33.301Z,56.90
2019-03-27T04:48:36.593Z,56.90
2019-03-27T04:50:40.084Z,56.50
2019-03-27T04:52:43.494Z,57.00
2019-03-27T04:54:46.771Z,57.00
2019-03-27T04:56:50.070Z,57.00
2019-03-27T04:58:53.465Z,57.10
2019-03-27T05:00:56.744Z,57.00
2019-03-27T05:03:00.134Z,57.00
2019-03-27T05:05:04.977Z,57.00
2019-03-27T05:07:08.358Z,57.00
2019-03-27T05:09:14.487Z,57.00
2019-03-27T05:11:20.625Z,57.00
2019-03-27T05:13:25.678Z,57.10
2019-03-27T05:15:29.028Z,57.10
2019-03-27T05:17:45.262Z,57.10
2019-03-27T05:19:40.185Z,57.20
2019-03-27T05:21:43.840Z,57.10
2019-03-27T05:23:47.163Z,57.20
2019-03-27T05:25:53.493Z,57.30
2019-03-27T05:27:59.787Z,57.30
2019-03-27T05:30:03.939Z,57.30
2019-03-27T05:32:07.301Z,57.30
2019-03-27T05:34:10.591Z,57.40
2019-03-27T05:36:13.912Z,57.30
2019-03-27T05:38:21.465Z,57.30
2019-03-27T05:40:24.835Z,57.40
2019-03-27T05:42:28.941Z,57.30
2019-03-27T05:44:32.329Z,57.30
2019-03-27T05:46:35.682Z,57.30
2019-03-27T05:48:39.099Z,57.40
2019-03-27T05:50:42.406Z,57.50
2019-03-27T05:52:45.771Z,57.50
2019-03-27T05:54:49.114Z,57.50
2019-03-27T05:56:52.475Z,57.40
2019-03-27T05:58:55.829Z,57.50
2019-03-27T06:00:59.151Z,57.50
2019-03-27T06:03:02.501Z,57.50
2019-03-27T06:05:05.785Z,57.50
2019-03-27T06:07:09.143Z,57.50
2019-03-27T06:09:12.513Z,57.50
2019-03-27T06:11:15.886Z,57.60
2019-03-27T06:13:19.291Z,57.60
2019-03-27T06:15:22.657Z,57.60
2019-03-27T06:17:26.270Z,57.60
2019-03-27T06:19:33.871Z,57.60
2019-03-27T06:21:37.250Z,57.60
2019-03-27T06:23:40.897Z,57.90
2019-03-27T06:25:44.223Z,57.70
2019-03-27T06:27:47.521Z,57.80
2019-03-27T06:29:50.904Z,57.80
2019-03-27T06:31:54.313Z,57.80
2019-03-27T06:33:57.604Z,57.80
2019-03-27T06:36:00.927Z,57.80
2019-03-27T06:38:04.308Z,57.90
2019-03-27T06:40:07.659Z,58.00
2019-03-27T06:42:13.928Z,58.30
2019-03-27T06:44:17.258Z,57.90
2019-03-27T06:46:20.610Z,57.90
2019-03-27T06:48:26.532Z,58.00
2019-03-27T06:50:28.959Z,57.90
2019-03-27T06:52:32.244Z,57.90
2019-03-27T06:54:35.607Z,58.10
2019-03-27T06:56:39.004Z,58.10
2019-03-27T06:58:53.910Z,58.20
2019-03-27T07:00:47.693Z,58.30
2019-03-27T07:02:51.024Z,58.20
2019-03-27T07:04:54.402Z,58.20
2019-03-27T07:06:57.756Z,58.20
2019-03-27T07:09:01.088Z,58.20
2019-03-27T07:11:04.379Z,58.20
2019-03-27T07:13:07.677Z,58.30
2019-03-27T07:15:11.464Z,58.20
2019-03-27T07:17:14.808Z,58.90
2019-03-27T07:19:18.149Z,58.20
2019-03-27T07:21:21.668Z,58.20
2019-03-27T07:23:25.309Z,58.20
2019-03-27T07:25:28.736Z,58.10
2019-03-27T07:27:32.119Z,58.10
2019-03-27T07:29:35.512Z,58.10
2019-03-27T07:31:38.901Z,58.00
2019-03-27T07:33:42.281Z,58.00
2019-03-27T07:35:45.647Z,58.00
2019-03-27T07:37:48.964Z,58.00
2019-03-27T07:39:52.336Z,58.00
2019-03-27T07:41:55.710Z,58.00
2019-03-27T07:44:02.479Z,58.10
2019-03-27T07:46:05.881Z,58.10
2019-03-27T07:48:09.257Z,58.10
2019-03-27T07:50:12.668Z,58.10
2019-03-27T07:52:16.024Z,58.10
2019-03-27T07:54:19.316Z,58.10
2019-03-27T07:56:22.794Z,58.00
2019-03-27T07:58:26.091Z,58.00
2019-03-27T08:00:29.384Z,58.00
2019-03-27T08:02:35.509Z,57.90
2019-03-27T08:04:38.782Z,57.80
2019-03-27T08:06:42.180Z,57.80
2019-03-27T08:08:45.586Z,58.00
2019-03-27T08:10:48.938Z,58.00
2019-03-27T08:12:52.231Z,58.00
2019-03-27T08:14:55.588Z,58.00
2019-03-27T08:17:01.903Z,57.90
2019-03-27T08:19:07.794Z,58.00
2019-03-27T08:21:10.346Z,58.20
2019-03-27T08:23:13.634Z,58.20
2019-03-27T08:25:16.991Z,58.20
2019-03-27T08:27:20.376Z,58.40
2019-03-27T08:29:23.676Z,58.40
2019-03-27T08:31:27.040Z,58.40
2019-03-27T08:33:30.349Z,58.10
2019-03-27T08:35:33.712Z,58.00
2019-03-27T08:37:37.147Z,57.70
2019-03-27T08:39:40.494Z,57.60
2019-03-27T08:41:43.808Z,57.40
2019-03-27T08:43:49.839Z,57.20
2019-03-27T08:45:53.229Z,57.00
2019-03-27T08:47:56.603Z,56.90
2019-03-27T08:49:59.964Z,56.90
2019-03-27T08:52:03.348Z,56.70
2019-03-27T08:54:06.790Z,56.60
2019-03-27T08:56:29.615Z,56.50
2019-03-27T08:58:33.514Z,56.30
2019-03-27T09:01:07.091Z,56.30
2019-03-27T09:03:10.459Z,56.20
2019-03-27T09:05:34.659Z,56.20
2019-03-27T09:07:38.012Z,56.10
2019-03-27T09:09:41.322Z,56.80
2019-03-27T09:11:47.708Z,55.90
2019-03-27T09:13:51.089Z,55.80
2019-03-27T09:15:54.442Z,55.90
2019-03-27T09:17:57.849Z,55.90
2019-03-27T09:20:01.152Z,55.90
2019-03-27T09:22:04.763Z,55.90
2019-03-27T09:24:08.083Z,56.10
2019-03-27T09:26:11.366Z,56.00
2019-03-27T09:28:14.740Z,56.00
2019-03-27T09:30:18.147Z,55.90
2019-03-27T09:32:21.577Z,56.00
2019-03-27T09:34:24.888Z,56.00
2019-03-27T09:36:28.274Z,55.90
2019-03-27T09:38:31.654Z,55.90
2019-03-27T09:40:37.980Z,55.90
2019-03-27T09:42:41.317Z,55.70
2019-03-27T09:44:47.637Z,55.70
2019-03-27T09:46:51.001Z,55.50
2019-03-27T09:48:54.398Z,55.60
2019-03-27T09:50:58.264Z,55.40
2019-03-27T09:53:01.726Z,55.30
2019-03-27T09:55:05.871Z,55.10
2019-03-27T09:57:09.216Z,54.90
2019-03-27T09:59:15.353Z,54.90
2019-03-27T10:01:18.717Z,54.90
2019-03-27T10:03:22.086Z,54.60
2019-03-27T10:05:25.509Z,54.30
2019-03-27T10:07:28.809Z,54.00
2019-03-27T10:09:32.083Z,54.10
2019-03-27T10:11:35.405Z,54.10
2019-03-27T10:13:39.428Z,54.00
2019-03-27T10:15:42.847Z,54.10
2019-03-27T10:17:46.162Z,54.10
2019-03-27T10:20:02.509Z,54.10
2019-03-27T10:21:54.626Z,54.20
2019-03-27T10:23:57.957Z,54.20
2019-03-27T10:26:01.539Z,54.10
2019-03-27T10:28:04.892Z,54.90
2019-03-27T10:30:08.209Z,54.30
2019-03-27T10:32:11.595Z,54.90
2019-03-27T10:34:14.994Z,54.20
2019-03-27T10:36:18.670Z,54.30
2019-03-27T10:38:22.068Z,54.20
2019-03-27T10:40:25.424Z,54.20
2019-03-27T10:42:28.703Z,54.20
2019-03-27T10:44:32.011Z,54.10
2019-03-27T10:46:35.307Z,53.90
2019-03-27T10:48:51.997Z,54.10
2019-03-27T10:50:46.965Z,54.20
2019-03-27T10:52:50.258Z,54.20
2019-03-27T10:54:53.550Z,54.30
2019-03-27T10:56:56.952Z,54.30
2019-03-27T10:59:00.330Z,54.30
2019-03-27T11:01:07.441Z,54.30
2019-03-27T11:03:11.016Z,54.30
2019-03-27T11:05:14.372Z,54.30
2019-03-27T11:07:17.667Z,54.20
2019-03-27T11:09:21.030Z,54.30
2019-03-27T11:11:27.384Z,54.40
2019-03-27T11:13:34.146Z,54.30
2019-03-27T11:15:38.830Z,54.20
2019-03-27T11:17:42.196Z,54.20
2019-03-27T11:19:45.561Z,54.20
2019-03-27T11:21:48.968Z,54.00
2019-03-27T11:23:52.359Z,54.00
2019-03-27T11:25:56.107Z,53.90
2019-03-27T11:27:59.505Z,53.80
2019-03-27T11:30:05.000Z,53.70
2019-03-27T11:32:08.942Z,54.40
2019-03-27T11:34:12.310Z,53.70
2019-03-27T11:36:15.680Z,53.70
2019-03-27T11:38:21.802Z,54.10
2019-03-27T11:40:25.132Z,53.50
2019-03-27T11:42:28.502Z,53.50
2019-03-27T11:44:31.992Z,53.50
2019-03-27T11:46:35.312Z,53.40
2019-03-27T11:48:38.693Z,53.30
2019-03-27T11:50:45.229Z,53.30
2019-03-27T11:52:47.093Z,53.40
2019-03-27T11:54:50.452Z,53.40
2019-03-27T11:56:53.746Z,53.40
2019-03-27T11:58:57.131Z,53.00
2019-03-27T12:01:00.490Z,53.70
2019-03-27T12:03:03.770Z,52.80
2019-03-27T12:05:08.381Z,52.80
2019-03-27T12:07:11.700Z,52.70
2019-03-27T12:09:15.072Z,52.80
2019-03-27T12:11:18.459Z,52.60
2019-03-27T12:13:21.876Z,52.50
2019-03-27T12:15:44.688Z,52.50
2019-03-27T12:17:48.034Z,52.30
2019-03-27T12:19:51.329Z,52.50
2019-03-27T12:21:55.053Z,52.60
2019-03-27T12:23:58.503Z,52.60
2019-03-27T12:26:01.884Z,52.50
2019-03-27T12:28:05.637Z,52.60
2019-03-27T12:30:08.923Z,52.60
2019-03-27T12:32:12.290Z,52.70
2019-03-27T12:34:15.684Z,52.80
2019-03-27T12:36:18.964Z,52.80
2019-03-27T12:38:22.255Z,53.00
2019-03-27T12:40:25.595Z,53.00
2019-03-27T12:42:28.975Z,53.00
2019-03-27T12:44:32.262Z,53.00
2019-03-27T12:46:35.682Z,52.80
2019-03-27T12:48:39.048Z,52.80
2019-03-27T12:50:44.355Z,52.70
2019-03-27T12:52:47.508Z,52.70
2019-03-27T12:54:50.786Z,52.80
2019-03-27T12:56:54.164Z,52.60
2019-03-27T12:58:57.571Z,52.50
2019-03-27T13:01:00.921Z,52.70
2019-03-27T13:03:04.400Z,52.60
2019-03-27T13:05:07.728Z,52.70
2019-03-27T13:07:11.178Z,52.60
2019-03-27T13:09:14.469Z,52.60
2019-03-27T13:11:18.853Z,52.50
2019-03-27T13:13:22.204Z,52.30
2019-03-27T13:15:25.572Z,52.20
2019-03-27T13:17:28.877Z,52.20
2019-03-27T13:19:32.396Z,52.30
2019-03-27T13:21:35.688Z,52.20
2019-03-27T13:23:38.991Z,52.20
2019-03-27T13:25:42.370Z,52.30
2019-03-27T13:27:48.921Z,52.10
2019-03-27T13:29:52.223Z,52.10
2019-03-27T13:31:58.511Z,52.10
2019-03-27T13:34:01.883Z,52.10
2019-03-27T13:36:05.266Z,52.10
2019-03-27T13:38:08.706Z,52.00
2019-03-27T13:40:12.015Z,51.90
2019-03-27T13:42:15.377Z,51.90
2019-03-27T13:44:18.686Z,51.90
2019-03-27T13:46:26.505Z,51.90
2019-03-27T13:48:29.906Z,51.80
2019-03-27T13:50:33.199Z,51.70
2019-03-27T13:52:36.515Z,51.70
2019-03-27T13:54:39.875Z,51.80
2019-03-27T13:56:43.222Z,51.80
2019-03-27T13:58:46.595Z,51.90
2019-03-27T14:00:49.987Z,51.70
2019-03-27T14:02:53.265Z,51.60
2019-03-27T14:04:56.557Z,51.40
2019-03-27T14:06:59.937Z,51.30
2019-03-27T14:09:03.557Z,51.20
2019-03-27T14:11:06.945Z,51.40
2019-03-27T14:13:10.303Z,51.40
2019-03-27T14:15:14.365Z,51.30
2019-03-27T14:17:17.731Z,50.70
2019-03-27T14:19:21.095Z,51.60
2019-03-27T14:21:24.517Z,51.00
2019-03-27T14:23:27.871Z,51.10
2019-03-27T14:25:34.199Z,51.20
2019-03-27T14:27:37.519Z,51.20
2019-03-27T14:29:43.562Z,52.00
2019-03-27T14:31:46.934Z,51.30
2019-03-27T14:33:50.255Z,51.30
2019-03-27T14:35:53.623Z,51.30
2019-03-27T14:37:56.893Z,51.20
2019-03-27T14:40:00.359Z,51.10
2019-03-27T14:42:03.791Z,51.30
2019-03-27T14:44:07.099Z,51.30
2019-03-27T14:46:10.523Z,51.30
2019-03-27T14:48:13.890Z,51.10
2019-03-27T14:50:17.259Z,50.90
2019-03-27T14:52:20.649Z,50.80
2019-03-27T14:54:24.111Z,50.80
2019-03-27T14:56:30.557Z,50.80
2019-03-27T14:58:33.942Z,50.80
2019-03-27T15:00:40.031Z,50.70
2019-03-27T15:02:43.445Z,50.60
2019-03-27T15:04:46.773Z,50.60
2019-03-27T15:06:50.061Z,50.70
2019-03-27T15:08:53.428Z,50.60
2019-03-27T15:10:56.823Z,50.60
2019-03-27T15:13:00.188Z,50.60
2019-03-27T15:15:05.180Z,50.70
2019-03-27T15:17:08.557Z,50.60
2019-03-27T15:19:11.865Z,50.70
2019-03-27T15:21:15.294Z,50.70
2019-03-27T15:23:18.721Z,50.70
2019-03-27T15:25:22.025Z,50.80
2019-03-27T15:27:25.393Z,50.80
2019-03-27T15:29:28.778Z,50.70
2019-03-27T15:31:32.434Z,50.70
2019-03-27T15:33:35.732Z,50.70
2019-03-27T15:35:39.104Z,50.60
2019-03-27T15:37:42.508Z,50.60
2019-03-27T15:39:46.234Z,50.50
2019-03-27T15:41:49.528Z,50.60
2019-03-27T15:43:52.823Z,50.70
2019-03-27T15:45:56.154Z,50.20
2019-03-27T15:47:59.503Z,50.70
2019-03-27T15:50:05.910Z,50.80
2019-03-27T15:52:09.295Z,50.80
2019-03-27T15:54:12.736Z,50.80
2019-03-27T15:56:16.103Z,50.80
2019-03-27T15:58:19.548Z,50.70
2019-03-27T16:00:23.160Z,50.70
2019-03-27T16:02:26.518Z,51.10
2019-03-27T16:04:31.353Z,50.80
2019-03-27T16:06:34.743Z,50.70
2019-03-27T16:08:38.103Z,50.60
2019-03-27T16:10:41.534Z,50.70
2019-03-27T16:12:44.888Z,50.80
2019-03-27T16:14:48.276Z,50.70
2019-03-27T16:17:06.767Z,50.70
2019-03-27T16:18:56.722Z,50.80
2019-03-27T16:21:01.658Z,50.80
2019-03-27T16:23:05.044Z,50.80
2019-03-27T16:25:08.426Z,50.80
2019-03-27T16:27:12.091Z,50.80
2019-03-27T16:29:15.406Z,50.80
2019-03-27T16:31:18.710Z,50.80
2019-03-27T16:33:22.062Z,50.90
2019-03-27T16:35:44.898Z,50.90
2019-03-27T16:37:48.180Z,51.00
2019-03-27T16:39:51.560Z,50.90
2019-03-27T16:41:57.882Z,51.00
2019-03-27T16:44:01.248Z,51.10
2019-03-27T16:46:04.611Z,51.20
2019-03-27T16:48:10.941Z,51.20
2019-03-27T16:50:14.262Z,51.20
2019-03-27T16:52:17.622Z,51.20
2019-03-27T16:54:24.034Z,51.30
2019-03-27T16:56:27.337Z,51.20
2019-03-27T16:58:33.414Z,51.20
2019-03-27T17:00:36.732Z,51.10
2019-03-27T17:02:40.062Z,51.20
2019-03-27T17:04:43.416Z,51.20
2019-03-27T17:06:46.842Z,51.20
2019-03-27T17:08:50.210Z,51.20
2019-03-27T17:10:53.551Z,51.20
2019-03-27T17:12:56.972Z,51.30
2019-03-27T17:15:00.391Z,51.30
2019-03-27T17:17:03.708Z,51.40
2019-03-27T17:19:07.016Z,51.50
2019-03-27T17:21:13.068Z,51.40
2019-03-27T17:23:18.519Z,51.40
2019-03-27T17:25:21.530Z,51.40
2019-03-27T17:27:27.660Z,51.30
2019-03-27T17:29:31.122Z,51.40
2019-03-27T17:31:34.520Z,51.50
2019-03-27T17:33:37.830Z,51.60
2019-03-27T17:35:45.431Z,51.50
2019-03-27T17:37:48.761Z,51.50
2019-03-27T17:39:52.099Z,51.50
2019-03-27T17:41:55.468Z,51.50
2019-03-27T17:43:58.841Z,51.60
2019-03-27T17:46:02.175Z,51.60
2019-03-27T17:48:08.472Z,51.60
2019-03-27T17:50:11.846Z,51.50
2019-03-27T17:52:15.254Z,51.60
2019-03-27T17:54:20.790Z,51.50
2019-03-27T17:56:23.971Z,51.60
2019-03-27T17:58:27.325Z,51.50
2019-03-27T18:00:48.785Z,51.70
2019-03-27T18:02:52.185Z,51.70
2019-03-27T18:04:55.585Z,51.60
2019-03-27T18:06:59.038Z,51.70
2019-03-27T18:09:21.838Z,51.80
2019-03-27T18:11:26.840Z,51.80
2019-03-27T18:13:30.123Z,51.70
2019-03-27T18:15:33.460Z,51.70
2019-03-27T18:17:37.709Z,51.50
2019-03-27T18:19:41.013Z,51.70
2019-03-27T18:21:44.407Z,51.90
2019-03-27T18:23:47.686Z,52.50
2019-03-27T18:25:51.024Z,52.00
2019-03-27T18:27:54.380Z,52.00
2019-03-27T18:29:57.669Z,52.20
2019-03-27T18:32:01.082Z,52.30
2019-03-27T18:34:04.438Z,52.20
2019-03-27T18:36:07.806Z,52.10
2019-03-27T18:38:11.139Z,52.10
2019-03-27T18:40:14.426Z,52.10
2019-03-27T18:42:17.751Z,52.10
2019-03-27T18:44:21.081Z,52.10
2019-03-27T18:46:24.446Z,52.10
2019-03-27T18:48:27.732Z,52.10
2019-03-27T18:50:32.711Z,52.10
2019-03-27T18:52:36.057Z,52.10
2019-03-27T18:54:39.435Z,52.00
2019-03-27T18:56:42.761Z,52.10
2019-03-27T18:58:47.242Z,52.20
2019-03-27T19:00:50.637Z,52.10
2019-03-27T19:02:54.015Z,52.20
2019-03-27T19:04:57.328Z,52.30
2019-03-27T19:07:00.691Z,52.40
2019-03-27T19:09:08.358Z,52.30
2019-03-27T19:11:11.647Z,52.40
2019-03-27T19:13:15.037Z,52.30
2019-03-27T19:15:18.448Z,52.30
2019-03-27T19:17:21.753Z,52.40
2019-03-27T19:19:25.071Z,52.30
2019-03-27T19:21:28.863Z,52.50
2019-03-27T19:23:32.215Z,52.40
2019-03-27T19:25:35.505Z,52.30
2019-03-27T19:27:38.910Z,52.30
2019-03-27T19:29:44.843Z,52.30
2019-03-27T19:31:47.353Z,52.50
2019-03-27T19:33:50.739Z,52.40
2019-03-27T19:35:54.119Z,52.40
2019-03-27T19:37:57.487Z,52.40
2019-03-27T19:40:01.379Z,52.40
2019-03-27T19:42:05.053Z,52.30
2019-03-27T19:44:08.470Z,52.40
2019-03-27T19:46:11.853Z,52.40
2019-03-27T19:48:15.250Z,52.40
2019-03-27T19:50:18.614Z,52.40
2019-03-27T19:52:21.937Z,52.50
2019-03-27T19:54:27.348Z,52.30
2019-03-27T19:56:33.208Z,52.40
2019-03-27T19:58:36.493Z,52.30
2019-03-27T20:00:39.891Z,52.80
2019-03-27T20:02:43.196Z,52.50
2019-03-27T20:04:46.552Z,52.60
2019-03-27T20:06:49.955Z,52.60
2019-03-27T20:08:56.468Z,52.60
2019-03-27T20:10:58.246Z,52.70
2019-03-27T20:13:01.628Z,52.60
2019-03-27T20:15:12.496Z,52.60
2019-03-27T20:17:12.198Z,52.60
2019-03-27T20:19:15.527Z,52.50
2019-03-27T20:21:18.806Z,52.40
2019-03-27T20:23:22.086Z,52.50
2019-03-27T20:25:25.557Z,52.50
2019-03-27T20:27:30.368Z,52.40
2019-03-27T20:29:33.747Z,52.50
2019-03-27T20:31:39.831Z,52.30
2019-03-27T20:33:43.308Z,52.20
2019-03-27T20:35:46.579Z,52.30
2019-03-27T20:37:49.896Z,52.20
2019-03-27T20:39:53.273Z,52.20
2019-03-27T20:41:56.633Z,52.10
2019-03-27T20:44:00.040Z,52.20
2019-03-27T20:46:03.456Z,52.20
2019-03-27T20:48:06.744Z,52.20
2019-03-27T20:50:10.200Z,52.20
2019-03-27T20:52:13.486Z,52.20
2019-03-27T20:54:16.776Z,52.20
2019-03-27T20:56:20.085Z,52.20
2019-03-27T20:58:26.359Z,52.20
2019-03-27T21:00:29.738Z,52.30
2019-03-27T21:02:33.125Z,52.30
2019-03-27T21:04:36.485Z,52.20
2019-03-27T21:06:39.845Z,52.40
2019-03-27T21:08:43.250Z,52.30
2019-03-27T21:10:46.890Z,52.80
2019-03-27T21:12:50.256Z,52.50
2019-03-27T21:14:53.550Z,52.50
2019-03-27T21:16:56.922Z,52.50
2019-03-27T21:19:00.339Z,52.50
2019-03-27T21:21:03.706Z,52.60
2019-03-27T21:23:07.158Z,52.70
2019-03-27T21:25:10.453Z,52.60
2019-03-27T21:27:17.061Z,52.80
2019-03-27T21:29:20.520Z,52.70
2019-03-27T21:31:23.833Z,52.90
2019-03-27T21:33:27.232Z,53.00
2019-03-27T21:35:30.597Z,53.00
2019-03-27T21:37:34.009Z,53.00
2019-03-27T21:39:37.435Z,53.10
2019-03-27T21:41:40.834Z,53.20
2019-03-27T21:43:44.209Z,53.20
2019-03-27T21:45:47.651Z,53.00
2019-03-27T21:47:51.019Z,52.90
2019-03-27T21:49:54.421Z,53.00
2019-03-27T21:51:57.857Z,53.10
2019-03-27T21:54:01.515Z,53.10
2019-03-27T21:56:04.901Z,53.10
2019-03-27T21:58:08.313Z,53.10
2019-03-27T22:00:11.702Z,53.10
2019-03-27T22:02:15.091Z,53.20
2019-03-27T22:04:18.482Z,53.20
2019-03-27T22:06:21.908Z,53.20
2019-03-27T22:08:25.287Z,53.30
2019-03-27T22:10:28.679Z,53.40
2019-03-27T22:12:32.139Z,53.40
2019-03-27T22:14:35.565Z,53.50
2019-03-27T22:16:38.961Z,53.40
2019-03-27T22:18:42.397Z,53.50
2019-03-27T22:20:45.783Z,53.60
2019-03-27T22:22:49.179Z,53.60
2019-03-27T22:24:52.593Z,53.60
2019-03-27T22:26:55.986Z,53.60
2019-03-27T22:28:59.407Z,53.60
2019-03-27T22:31:02.810Z,53.60
2019-03-27T22:33:06.225Z,53.50
2019-03-27T22:35:11.302Z,53.60
2019-03-27T22:37:14.701Z,53.70
2019-03-27T22:39:18.102Z,53.60
2019-03-27T22:41:21.522Z,53.70
2019-03-27T22:43:27.653Z,53.80
2019-03-27T22:45:31.062Z,53.70
2019-03-27T22:47:34.479Z,53.80
2019-03-27T22:49:37.869Z,53.80
2019-03-27T22:51:41.337Z,53.90
2019-03-27T22:53:44.761Z,53.70
2019-03-27T22:55:50.923Z,53.80
2019-03-27T22:57:54.316Z,53.90
2019-03-27T22:59:57.721Z,54.00
2019-03-27T23:02:01.117Z,54.10
2019-03-27T23:04:07.478Z,54.10
2019-03-27T23:06:10.904Z,54.10
2019-03-27T23:08:14.312Z,54.20
2019-03-27T23:10:17.695Z,54.20
2019-03-27T23:12:21.095Z,54.10
2019-03-27T23:14:24.489Z,54.10
2019-03-27T23:16:27.914Z,54.10
2019-03-27T23:18:31.298Z,54.00
2019-03-27T23:20:39.388Z,54.10
2019-03-27T23:22:42.801Z,53.90
2019-03-27T23:24:46.193Z,53.90
2019-03-27T23:26:49.591Z,54.00
2019-03-27T23:28:53.001Z,54.00
2019-03-27T23:30:56.404Z,54.00
2019-03-27T23:32:59.795Z,54.00
2019-03-27T23:35:05.062Z,54.10
2019-03-27T23:37:08.446Z,54.10
2019-03-27T23:39:11.815Z,54.10
2019-03-27T23:41:15.224Z,54.20
2019-03-27T23:43:18.634Z,54.20
2019-03-27T23:45:22.021Z,54.20
2019-03-27T23:47:25.455Z,54.20
2019-03-27T23:49:28.848Z,54.90
2019-03-27T23:51:32.295Z,54.20
2019-03-27T23:53:35.714Z,54.20
2019-03-27T23:55:39.110Z,54.30
2019-03-27T23:57:42.508Z,54.30
2019-03-27T23:59:48.790Z,54.30
